Accueil
METAR-TAF:

METAR-TAF

Aéroports :

Aéroport de Pampelune

Pampelune, Espagne

latitude: 42-46N, longitude: 001-38W, altitude: 459 m

Observation

Le bulletin a été fait il y a 28 minutes, à 22:00 UTC
Vent 5 kt de nord-ouest
Température 17°C
Humidité 68%
Pression 1022 hPa
Visibilité 10 km ou plus
pas de nuages en-dessous de 1500 mètres et pas de cumulonimbus.

METAR: LEPP 222200Z 32005KT CAVOK 17/11 Q1022

Heure: 00:28 (22:28 UTC)

Prévision

Le bulletin a été fait il y a 2 heures et 28 minutes, à 20:00 UTC
Prévision valable du 22 à 21 UTC au 23 à 21 UTC
Vent 10 kt de nord/nord-ouest
Visibilité 10 km ou plus
pas de nuages en-dessous de 1500 mètres et pas de cumulonimbus.
Evoluant progressivement
du 22 à 21 UTC au 22 à 24 UTC
Vent 3 kt de direction variable
Evoluant progressivement
du 23 à 08 UTC au 23 à 12 UTC
Vent 10 kt de sud

TAF: LEPP 222000Z 2221/2321 33010KT CAVOK TX33/2314Z TN13/2306Z BECMG 2221/2224 VRB03KT BECMG 2308/2312 17010KT

Observations et prévisions météorologiques de plus de 4000 aéroports (messages METAR et TAF).

Les stations disponibles sont représentées par des disques jaunes et rouges sur la carte.

Passer la souris dessus pour voir le nom de la station.

Cliquer dessus pour voir les observations et prévisions météorologiques.

Pour changer de carte: cliquez sur les boutons verts avec une croix noire pour zoomer, sur le bouton vert avec un tiret pour effectuer un zoom arrière, ou sur les flèches vertes pour les cartes adjacentes.


METAR-TAF: